sensor_id;sensor_type;location;lat;lon;timestamp;pressure;altitude;pressure_sealevel;temperature;humidity
10474;BME280;5284;50.446;7.904;2023-04-01T00:04:12;96545.84;;;9.66;100.00
10474;BME280;5284;50.446;7.904;2023-04-01T00:09:17;96544.84;;;9.67;100.00
10474;BME280;5284;50.446;7.904;2023-04-01T00:14:21;96546.88;;;9.65;100.00
10474;BME280;5284;50.446;7.904;2023-04-01T00:19:24;96542.69;;;9.62;100.00
10474;BME280;5284;50.446;7.904;2023-04-01T00:24:31;96540.22;;;9.61;100.00
10474;BME280;5284;50.446;7.904;2023-04-01T00:29:34;96530.09;;;9.56;100.00
10474;BME280;5284;50.446;7.904;2023-04-01T00:34:40;96536.25;;;9.57;100.00
10474;BME280;5284;50.446;7.904;2023-04-01T00:39:44;96539.44;;;9.52;100.00
10474;BME280;5284;50.446;7.904;2023-04-01T00:44:50;96540.94;;;9.55;100.00
10474;BME280;5284;50.446;7.904;2023-04-01T00:49:54;96541.44;;;9.50;100.00
10474;BME280;5284;50.446;7.904;2023-04-01T00:55:05;96533.81;;;9.47;100.00
10474;BME280;5284;50.446;7.904;2023-04-01T01:00:11;96553.91;;;9.50;100.00
10474;BME280;5284;50.446;7.904;2023-04-01T01:05:17;96523.66;;;9.43;100.00
10474;BME280;5284;50.446;7.904;2023-04-01T01:10:25;96538.47;;;9.45;100.00
10474;BME280;5284;50.446;7.904;2023-04-01T01:15:37;96558.91;;;9.45;100.00
10474;BME280;5284;50.446;7.904;2023-04-01T01:21:14;96544.94;;;9.43;100.00
10474;BME280;5284;50.446;7.904;2023-04-01T01:26:40;96534.31;;;9.43;100.00
10474;BME280;5284;50.446;7.904;2023-04-01T01:31:53;96522.84;;;9.42;100.00
10474;BME280;5284;50.446;7.904;2023-04-01T01:37:05;96534.50;;;9.41;100.00
10474;BME280;5284;50.446;7.904;2023-04-01T01:42:15;96534.66;;;9.40;100.00
10474;BME280;5284;50.446;7.904;2023-04-01T01:47:22;96536.66;;;9.38;100.00
10474;BME280;5284;50.446;7.904;2023-04-01T01:52:28;96516.22;;;9.38;100.00
10474;BME280;5284;50.446;7.904;2023-04-01T01:57:33;96519.88;;;9.37;100.00
10474;BME280;5284;50.446;7.904;2023-04-01T02:02:39;96528.03;;;9.36;100.00
10474;BME280;5284;50.446;7.904;2023-04-01T02:07:48;96531.69;;;9.35;100.00
10474;BME280;5284;50.446;7.904;2023-04-01T02:12:58;96521.88;;;9.35;100.00
10474;BME280;5284;50.446;7.904;2023-04-01T02:18:02;96531.69;;;9.35;100.00
10474;BME280;5284;50.446;7.904;2023-04-01T02:23:09;96524.53;;;9.35;100.00
10474;BME280;5284;50.446;7.904;2023-04-01T02:28:14;96543.13;;;9.35;100.00
10474;BME280;5284;50.446;7.904;2023-04-01T02:33:22;96525.72;;;9.33;100.00
10474;BME280;5284;50.446;7.904;2023-04-01T02:38:27;96525.41;;;9.28;100.00
10474;BME280;5284;50.446;7.904;2023-04-01T02:43:33;96523.75;;;9.27;100.00
10474;BME280;5284;50.446;7.904;2023-04-01T02:48:36;96524.91;;;9.24;100.00
10474;BME280;5284;50.446;7.904;2023-04-01T02:53:40;96529.41;;;9.24;100.00
10474;BME280;5284;50.446;7.904;2023-04-01T02:58:43;96523.44;;;9.14;100.00
10474;BME280;5284;50.446;7.904;2023-04-01T03:03:46;96516.66;;;9.11;100.00
10474;BME280;5284;50.446;7.904;2023-04-01T03:08:57;96510.00;;;9.15;100.00
10474;BME280;5284;50.446;7.904;2023-04-01T03:14:00;96509.34;;;9.13;100.00
10474;BME280;5284;50.446;7.904;2023-04-01T03:19:04;96515.81;;;9.11;100.00
10474;BME280;5284;50.446;7.904;2023-04-01T03:24:09;96514.81;;;9.12;100.00
10474;BME280;5284;50.446;7.904;2023-04-01T03:29:13;96505.16;;;9.11;100.00
10474;BME280;5284;50.446;7.904;2023-04-01T03:34:18;96514.34;;;9.08;100.00
10474;BME280;5284;50.446;7.904;2023-04-01T03:39:22;96497.91;;;8.97;100.00
10474;BME280;5284;50.446;7.904;2023-04-01T03:44:25;96510.59;;;8.87;100.00
10474;BME280;5284;50.446;7.904;2023-04-01T03:49:29;96511.75;;;8.77;100.00
10474;BME280;5284;50.446;7.904;2023-04-01T03:54:35;96534.84;;;8.68;100.00
10474;BME280;5284;50.446;7.904;2023-04-01T03:59:39;96516.09;;;8.62;100.00
10474;BME280;5284;50.446;7.904;2023-04-01T04:04:42;96514.75;;;8.58;100.00
10474;BME280;5284;50.446;7.904;2023-04-01T04:09:48;96501.66;;;8.48;100.00
10474;BME280;5284;50.446;7.904;2023-04-01T04:14:51;96508.81;;;8.40;100.00
10474;BME280;5284;50.446;7.904;2023-04-01T04:19:54;96511.81;;;8.37;100.00
10474;BME280;5284;50.446;7.904;2023-04-01T04:24:58;96495.22;;;8.35;100.00
10474;BME280;5284;50.446;7.904;2023-04-01T04:30:02;96515.44;;;8.28;100.00
10474;BME280;5284;50.446;7.904;2023-04-01T04:35:05;96514.78;;;8.26;100.00
10474;BME280;5284;50.446;7.904;2023-04-01T04:40:11;96508.13;;;8.22;100.00
10474;BME280;5284;50.446;7.904;2023-04-01T04:45:15;96503.34;;;8.17;100.00
10474;BME280;5284;50.446;7.904;2023-04-01T04:50:27;96516.22;;;8.12;100.00
10474;BME280;5284;50.446;7.904;2023-04-01T04:55:31;96521.88;;;8.09;100.00
10474;BME280;5284;50.446;7.904;2023-04-01T05:00:55;96523.19;;;8.05;100.00
10474;BME280;5284;50.446;7.904;2023-04-01T05:06:03;96519.88;;;8.03;100.00
10474;BME280;5284;50.446;7.904;2023-04-01T05:11:10;96530.81;;;8.00;100.00
10474;BME280;5284;50.446;7.904;2023-04-01T05:16:18;96525.84;;;7.97;100.00
10474;BME280;5284;50.446;7.904;2023-04-01T05:21:22;96516.91;;;7.98;100.00
10474;BME280;5284;50.446;7.904;2023-04-01T05:26:28;96518.41;;;8.01;100.00
10474;BME280;5284;50.446;7.904;2023-04-01T05:31:32;96524.00;;;7.98;100.00
10474;BME280;5284;50.446;7.904;2023-04-01T05:36:36;96537.47;;;8.04;100.00
10474;BME280;5284;50.446;7.904;2023-04-01T05:41:40;96521.94;;;8.17;100.00
10474;BME280;5284;50.446;7.904;2023-04-01T05:46:43;96528.22;;;8.32;100.00
10474;BME280;5284;50.446;7.904;2023-04-01T05:52:04;96520.59;;;8.45;100.00
10474;BME280;5284;50.446;7.904;2023-04-01T05:57:10;96522.91;;;8.48;100.00
10474;BME280;5284;50.446;7.904;2023-04-01T06:02:16;96521.91;;;8.49;100.00
10474;BME280;5284;50.446;7.904;2023-04-01T06:07:21;96530.38;;;8.53;100.00
10474;BME280;5284;50.446;7.904;2023-04-01T06:12:47;96528.22;;;8.56;100.00
10474;BME280;5284;50.446;7.904;2023-04-01T06:18:03;96546.63;;;8.58;100.00
10474;BME280;5284;50.446;7.904;2023-04-01T06:23:33;96543.84;;;8.59;100.00
10474;BME280;5284;50.446;7.904;2023-04-01T06:29:09;96542.81;;;8.68;100.00
10474;BME280;5284;50.446;7.904;2023-04-01T06:40:18;96545.28;;;8.86;100.00
10474;BME280;5284;50.446;7.904;2023-04-01T06:45:33;96545.28;;;8.86;100.00
10474;BME280;5284;50.446;7.904;2023-04-01T06:51:04;96538.31;;;8.85;100.00
10474;BME280;5284;50.446;7.904;2023-04-01T06:56:45;96553.41;;;8.84;100.00
10474;BME280;5284;50.446;7.904;2023-04-01T07:01:59;96553.91;;;8.88;100.00
10474;BME280;5284;50.446;7.904;2023-04-01T07:07:10;96552.41;;;9.01;100.00
10474;BME280;5284;50.446;7.904;2023-04-01T07:12:34;96552.22;;;9.10;100.00
10474;BME280;5284;50.446;7.904;2023-04-01T07:17:52;96556.34;;;9.21;100.00
10474;BME280;5284;50.446;7.904;2023-04-01T07:22:59;96553.03;;;9.19;100.00
10474;BME280;5284;50.446;7.904;2023-04-01T07:28:12;96560.78;;;9.28;100.00
10474;BME280;5284;50.446;7.904;2023-04-01T07:33:25;96567.63;;;9.31;100.00
10474;BME280;5284;50.446;7.904;2023-04-01T07:38:39;96569.59;;;9.37;100.00
10474;BME280;5284;50.446;7.904;2023-04-01T07:43:55;96577.06;;;9.41;100.00
10474;BME280;5284;50.446;7.904;2023-04-01T07:49:08;96578.84;;;9.57;100.00
10474;BME280;5284;50.446;7.904;2023-04-01T07:54:22;96581.19;;;9.44;100.00
10474;BME280;5284;50.446;7.904;2023-04-01T07:59:31;96584.63;;;9.60;100.00
10474;BME280;5284;50.446;7.904;2023-04-01T08:05:06;96581.91;;;9.68;100.00
10474;BME280;5284;50.446;7.904;2023-04-01T08:10:19;96591.66;;;9.84;100.00
10474;BME280;5284;50.446;7.904;2023-04-01T08:15:50;96587.41;;;10.13;100.00
10474;BME280;5284;50.446;7.904;2023-04-01T08:21:14;96596.09;;;10.07;100.00
10474;BME280;5284;50.446;7.904;2023-04-01T08:26:26;96599.16;;;10.19;100.00
10474;BME280;5284;50.446;7.904;2023-04-01T08:31:38;96606.03;;;10.13;100.00
10474;BME280;5284;50.446;7.904;2023-04-01T08:36:47;96593.91;;;10.33;100.00
10474;BME280;5284;50.446;7.904;2023-04-01T08:42:18;96603.88;;;10.84;100.00
10474;BME280;5284;50.446;7.904;2023-04-01T08:53:29;96608.16;;;10.70;100.00
10474;BME280;5284;50.446;7.904;2023-04-01T08:58:59;96616.22;;;10.63;100.00
10474;BME280;5284;50.446;7.904;2023-04-01T09:04:25;96622.00;;;10.66;100.00
10474;BME280;5284;50.446;7.904;2023-04-01T09:09:47;96627.22;;;10.60;100.00
10474;BME280;5284;50.446;7.904;2023-04-01T09:20:56;96634.75;;;10.78;100.00
10474;BME280;5284;50.446;7.904;2023-04-01T09:26:20;96632.50;;;10.90;100.00
10474;BME280;5284;50.446;7.904;2023-04-01T09:31:45;96634.63;;;10.94;100.00
10474;BME280;5284;50.446;7.904;2023-04-01T09:37:19;96642.56;;;10.80;100.00
10474;BME280;5284;50.446;7.904;2023-04-01T09:42:43;96641.22;;;10.84;100.00
10474;BME280;5284;50.446;7.904;2023-04-01T09:48:05;96641.94;;;10.78;100.00
10474;BME280;5284;50.446;7.904;2023-04-01T09:53:22;96655.31;;;10.92;100.00
10474;BME280;5284;50.446;7.904;2023-04-01T09:58:50;96653.44;;;11.15;100.00
10474;BME280;5284;50.446;7.904;2023-04-01T10:04:48;96662.00;;;11.11;100.00
10474;BME280;5284;50.446;7.904;2023-04-01T10:15:48;96667.94;;;10.98;100.00
10474;BME280;5284;50.446;7.904;2023-04-01T10:21:02;96667.16;;;10.90;100.00
10474;BME280;5284;50.446;7.904;2023-04-01T10:26:43;96669.75;;;11.35;100.00
10474;BME280;5284;50.446;7.904;2023-04-01T10:32:39;96670.31;;;11.30;100.00
10474;BME280;5284;50.446;7.904;2023-04-01T10:38:19;96671.75;;;11.18;100.00
10474;BME280;5284;50.446;7.904;2023-04-01T10:43:59;96669.06;;;11.18;100.00
10474;BME280;5284;50.446;7.904;2023-04-01T10:49:43;96673.53;;;11.26;100.00
10474;BME280;5284;50.446;7.904;2023-04-01T10:54:49;96678.41;;;11.37;100.00
10474;BME280;5284;50.446;7.904;2023-04-01T11:00:28;96680.31;;;11.14;100.00
10474;BME280;5284;50.446;7.904;2023-04-01T11:06:18;96687.06;;;11.02;100.00
10474;BME280;5284;50.446;7.904;2023-04-01T11:17:37;96696.59;;;11.19;100.00
10474;BME280;5284;50.446;7.904;2023-04-01T11:23:16;96710.09;;;11.40;100.00
10474;BME280;5284;50.446;7.904;2023-04-01T11:28:47;96710.09;;;11.40;100.00
10474;BME280;5284;50.446;7.904;2023-04-01T11:34:04;96711.44;;;11.36;100.00
10474;BME280;5284;50.446;7.904;2023-04-01T11:39:22;96724.84;;;11.50;100.00
10474;BME280;5284;50.446;7.904;2023-04-01T11:44:39;96720.50;;;11.57;100.00
10474;BME280;5284;50.446;7.904;2023-04-01T11:50:03;96721.44;;;11.42;100.00
10474;BME280;5284;50.446;7.904;2023-04-01T11:55:31;96734.69;;;11.50;100.00
10474;BME280;5284;50.446;7.904;2023-04-01T12:00:51;96735.94;;;11.62;100.00
10474;BME280;5284;50.446;7.904;2023-04-01T12:06:02;96745.38;;;11.50;100.00
10474;BME280;5284;50.446;7.904;2023-04-01T12:11:16;96754.97;;;11.96;100.00
10474;BME280;5284;50.446;7.904;2023-04-01T12:16:37;96756.28;;;12.14;100.00
10474;BME280;5284;50.446;7.904;2023-04-01T12:21:51;96757.66;;;12.53;100.00
10474;BME280;5284;50.446;7.904;2023-04-01T12:27:07;96752.16;;;13.26;100.00
10474;BME280;5284;50.446;7.904;2023-04-01T12:32:19;96760.16;;;13.05;100.00
10474;BME280;5284;50.446;7.904;2023-04-01T12:37:35;96763.50;;;13.07;100.00
10474;BME280;5284;50.446;7.904;2023-04-01T12:42:53;96763.63;;;13.20;100.00
10474;BME280;5284;50.446;7.904;2023-04-01T12:48:45;96766.28;;;12.99;100.00
10474;BME280;5284;50.446;7.904;2023-04-01T12:54:12;96784.91;;;12.78;100.00
10474;BME280;5284;50.446;7.904;2023-04-01T12:59:47;96780.63;;;13.96;100.00
10474;BME280;5284;50.446;7.904;2023-04-01T13:05:09;96782.38;;;13.62;100.00
10474;BME280;5284;50.446;7.904;2023-04-01T13:10:27;96782.28;;;13.76;100.00
10474;BME280;5284;50.446;7.904;2023-04-01T13:15:39;96789.81;;;13.87;100.00
10474;BME280;5284;50.446;7.904;2023-04-01T13:20:49;96794.53;;;13.43;100.00
10474;BME280;5284;50.446;7.904;2023-04-01T13:26:03;96799.38;;;13.75;100.00
10474;BME280;5284;50.446;7.904;2023-04-01T13:31:28;96796.69;;;13.96;100.00
10474;BME280;5284;50.446;7.904;2023-04-01T13:36:39;96792.16;;;14.17;100.00
10474;BME280;5284;50.446;7.904;2023-04-01T13:41:59;96798.28;;;15.26;100.00
10474;BME280;5284;50.446;7.904;2023-04-01T13:47:24;96796.44;;;14.39;100.00
10474;BME280;5284;50.446;7.904;2023-04-01T13:52:44;96804.81;;;13.81;100.00
10474;BME280;5284;50.446;7.904;2023-04-01T13:58:07;96813.16;;;13.30;100.00
10474;BME280;5284;50.446;7.904;2023-04-01T14:03:30;96811.47;;;13.44;100.00
10474;BME280;5284;50.446;7.904;2023-04-01T14:09:04;96815.16;;;13.64;100.00
10474;BME280;5284;50.446;7.904;2023-04-01T14:14:22;96814.94;;;13.23;100.00
10474;BME280;5284;50.446;7.904;2023-04-01T14:25:25;96834.44;;;13.17;100.00
10474;BME280;5284;50.446;7.904;2023-04-01T14:31:06;96835.00;;;13.13;100.00
10474;BME280;5284;50.446;7.904;2023-04-01T14:36:30;96855.13;;;12.65;100.00
10474;BME280;5284;50.446;7.904;2023-04-01T14:41:46;96859.00;;;11.97;100.00
10474;BME280;5284;50.446;7.904;2023-04-01T14:47:11;96853.31;;;11.78;100.00
10474;BME280;5284;50.446;7.904;2023-04-01T14:52:27;96856.09;;;11.62;100.00
10474;BME280;5284;50.446;7.904;2023-04-01T14:57:31;96863.88;;;11.71;100.00
10474;BME280;5284;50.446;7.904;2023-04-01T15:02:45;96854.56;;;11.67;100.00
10474;BME280;5284;50.446;7.904;2023-04-01T15:08:15;96875.63;;;11.54;100.00
10474;BME280;5284;50.446;7.904;2023-04-01T15:13:37;96878.13;;;11.33;100.00
10474;BME280;5284;50.446;7.904;2023-04-01T15:18:53;96885.41;;;11.39;100.00
10474;BME280;5284;50.446;7.904;2023-04-01T15:24:07;96887.00;;;11.26;100.00
10474;BME280;5284;50.446;7.904;2023-04-01T15:29:40;96893.72;;;11.14;100.00
10474;BME280;5284;50.446;7.904;2023-04-01T15:34:53;96901.19;;;11.18;100.00
10474;BME280;5284;50.446;7.904;2023-04-01T15:40:02;96906.72;;;11.17;100.00
10474;BME280;5284;50.446;7.904;2023-04-01T15:45:31;96916.13;;;10.97;100.00
10474;BME280;5284;50.446;7.904;2023-04-01T15:50:46;96920.34;;;10.91;100.00
10474;BME280;5284;50.446;7.904;2023-04-01T15:55:57;96912.66;;;10.96;100.00
10474;BME280;5284;50.446;7.904;2023-04-01T16:01:15;96925.03;;;10.89;100.00
10474;BME280;5284;50.446;7.904;2023-04-01T16:06:39;96935.13;;;11.02;100.00
10474;BME280;5284;50.446;7.904;2023-04-01T16:11:53;96937.13;;;11.08;100.00
10474;BME280;5284;50.446;7.904;2023-04-01T16:17:07;96935.97;;;11.02;100.00
10474;BME280;5284;50.446;7.904;2023-04-01T16:22:20;96936.00;;;10.86;100.00
10474;BME280;5284;50.446;7.904;2023-04-01T16:27:35;96944.16;;;10.93;100.00
10474;BME280;5284;50.446;7.904;2023-04-01T16:32:44;96948.91;;;11.13;100.00
10474;BME280;5284;50.446;7.904;2023-04-01T16:37:54;96950.63;;;11.06;100.00
10474;BME280;5284;50.446;7.904;2023-04-01T16:43:10;96962.19;;;10.83;100.00
10474;BME280;5284;50.446;7.904;2023-04-01T16:48:17;96970.88;;;10.77;100.00
10474;BME280;5284;50.446;7.904;2023-04-01T16:53:34;96975.09;;;10.56;100.00
10474;BME280;5284;50.446;7.904;2023-04-01T16:58:56;96995.41;;;10.41;100.00
10474;BME280;5284;50.446;7.904;2023-04-01T17:04:07;96997.56;;;10.29;100.00
10474;BME280;5284;50.446;7.904;2023-04-01T17:09:32;97004.56;;;10.22;100.00
10474;BME280;5284;50.446;7.904;2023-04-01T17:14:54;97011.75;;;10.30;100.00
10474;BME280;5284;50.446;7.904;2023-04-01T17:20:19;97023.69;;;10.18;100.00
10474;BME280;5284;50.446;7.904;2023-04-01T17:25:43;97037.00;;;10.10;100.00
10474;BME280;5284;50.446;7.904;2023-04-01T17:30:57;97040.50;;;10.02;100.00
10474;BME280;5284;50.446;7.904;2023-04-01T17:36:10;97051.09;;;9.94;100.00
10474;BME280;5284;50.446;7.904;2023-04-01T17:41:26;97057.59;;;9.92;100.00
10474;BME280;5284;50.446;7.904;2023-04-01T17:46:40;97072.53;;;9.85;100.00
10474;BME280;5284;50.446;7.904;2023-04-01T17:51:51;97077.19;;;9.83;100.00
10474;BME280;5284;50.446;7.904;2023-04-01T17:57:07;97089.16;;;9.79;100.00
10474;BME280;5284;50.446;7.904;2023-04-01T18:02:25;97094.44;;;9.63;100.00
10474;BME280;5284;50.446;7.904;2023-04-01T18:07:57;97097.06;;;9.55;100.00
10474;BME280;5284;50.446;7.904;2023-04-01T18:13:25;97104.66;;;9.50;100.00
10474;BME280;5284;50.446;7.904;2023-04-01T18:18:47;97113.28;;;9.44;100.00
10474;BME280;5284;50.446;7.904;2023-04-01T18:23:57;97118.25;;;9.39;100.00
10474;BME280;5284;50.446;7.904;2023-04-01T18:29:15;97132.72;;;9.36;100.00
10474;BME280;5284;50.446;7.904;2023-04-01T18:34:37;97138.50;;;9.32;100.00
10474;BME280;5284;50.446;7.904;2023-04-01T18:39:48;97145.13;;;9.28;100.00
10474;BME280;5284;50.446;7.904;2023-04-01T18:44:55;97153.22;;;9.18;100.00
10474;BME280;5284;50.446;7.904;2023-04-01T18:50:13;97159.16;;;9.12;100.00
10474;BME280;5284;50.446;7.904;2023-04-01T18:55:28;97169.56;;;9.06;100.00
10474;BME280;5284;50.446;7.904;2023-04-01T19:00:36;97173.53;;;9.02;100.00
10474;BME280;5284;50.446;7.904;2023-04-01T19:05:44;97184.47;;;8.99;100.00
10474;BME280;5284;50.446;7.904;2023-04-01T19:10:54;97188.13;;;8.98;100.00
10474;BME280;5284;50.446;7.904;2023-04-01T19:16:05;97198.06;;;8.96;100.00
10474;BME280;5284;50.446;7.904;2023-04-01T19:21:17;97205.19;;;8.96;100.00
10474;BME280;5284;50.446;7.904;2023-04-01T19:26:23;97214.16;;;8.95;100.00
10474;BME280;5284;50.446;7.904;2023-04-01T19:31:40;97225.78;;;8.94;100.00
10474;BME280;5284;50.446;7.904;2023-04-01T19:36:51;97225.41;;;8.89;100.00
10474;BME280;5284;50.446;7.904;2023-04-01T19:41:59;97234.94;;;8.91;100.00
10474;BME280;5284;50.446;7.904;2023-04-01T19:47:14;97238.03;;;8.87;100.00
10474;BME280;5284;50.446;7.904;2023-04-01T19:52:30;97253.97;;;8.87;100.00
10474;BME280;5284;50.446;7.904;2023-04-01T19:57:38;97245.63;;;8.82;100.00
10474;BME280;5284;50.446;7.904;2023-04-01T20:03:04;97255.72;;;8.78;100.00
10474;BME280;5284;50.446;7.904;2023-04-01T20:08:15;97259.53;;;8.76;100.00
10474;BME280;5284;50.446;7.904;2023-04-01T20:13:28;97271.81;;;8.77;100.00
10474;BME280;5284;50.446;7.904;2023-04-01T20:18:41;97284.25;;;8.76;100.00
10474;BME280;5284;50.446;7.904;2023-04-01T20:23:54;97283.44;;;8.76;100.00
10474;BME280;5284;50.446;7.904;2023-04-01T20:29:18;97291.56;;;8.74;100.00
10474;BME280;5284;50.446;7.904;2023-04-01T20:34:40;97303.84;;;8.75;100.00
10474;BME280;5284;50.446;7.904;2023-04-01T20:40:12;97301.50;;;8.72;100.00
10474;BME280;5284;50.446;7.904;2023-04-01T20:45:30;97296.34;;;8.71;100.00
10474;BME280;5284;50.446;7.904;2023-04-01T20:50:42;97300.81;;;8.70;100.00
10474;BME280;5284;50.446;7.904;2023-04-01T20:56:09;97309.78;;;8.69;100.00
10474;BME280;5284;50.446;7.904;2023-04-01T21:01:24;97319.72;;;8.67;100.00
10474;BME280;5284;50.446;7.904;2023-04-01T21:06:44;97324.72;;;8.70;100.00
10474;BME280;5284;50.446;7.904;2023-04-01T21:12:01;97329.22;;;8.70;100.00
10474;BME280;5284;50.446;7.904;2023-04-01T21:17:09;97339.56;;;8.73;100.00
10474;BME280;5284;50.446;7.904;2023-04-01T21:22:38;97345.84;;;8.72;100.00
10474;BME280;5284;50.446;7.904;2023-04-01T21:27:59;97346.69;;;8.72;100.00
10474;BME280;5284;50.446;7.904;2023-04-01T21:33:20;97346.38;;;8.75;100.00
10474;BME280;5284;50.446;7.904;2023-04-01T21:38:43;97361.50;;;8.75;100.00
10474;BME280;5284;50.446;7.904;2023-04-01T21:44:24;97364.00;;;8.76;100.00
10474;BME280;5284;50.446;7.904;2023-04-01T21:49:49;97375.63;;;8.75;100.00
10474;BME280;5284;50.446;7.904;2023-04-01T21:55:30;97380.78;;;8.77;100.00
10474;BME280;5284;50.446;7.904;2023-04-01T22:00:42;97392.25;;;8.77;100.00
10474;BME280;5284;50.446;7.904;2023-04-01T22:05:52;97398.41;;;8.78;100.00
10474;BME280;5284;50.446;7.904;2023-04-01T22:11:05;97395.59;;;8.79;100.00
10474;BME280;5284;50.446;7.904;2023-04-01T22:16:20;97403.56;;;8.79;100.00
10474;BME280;5284;50.446;7.904;2023-04-01T22:21:32;97410.72;;;8.79;100.00
10474;BME280;5284;50.446;7.904;2023-04-01T22:26:46;97418.81;;;8.77;100.00
10474;BME280;5284;50.446;7.904;2023-04-01T22:31:55;97412.53;;;8.78;100.00
10474;BME280;5284;50.446;7.904;2023-04-01T22:37:05;97425.00;;;8.78;100.00
10474;BME280;5284;50.446;7.904;2023-04-01T22:42:24;97433.09;;;8.76;100.00
10474;BME280;5284;50.446;7.904;2023-04-01T22:47:35;97433.09;;;8.76;100.00
10474;BME280;5284;50.446;7.904;2023-04-01T22:52:47;97442.06;;;8.75;100.00
10474;BME280;5284;50.446;7.904;2023-04-01T22:57:54;97438.41;;;8.76;100.00
10474;BME280;5284;50.446;7.904;2023-04-01T23:03:14;97450.72;;;8.77;100.00
10474;BME280;5284;50.446;7.904;2023-04-01T23:09:07;97455.91;;;8.79;100.00
10474;BME280;5284;50.446;7.904;2023-04-01T23:14:48;97458.00;;;8.75;100.00
10474;BME280;5284;50.446;7.904;2023-04-01T23:19:59;97464.47;;;8.73;100.00
10474;BME280;5284;50.446;7.904;2023-04-01T23:25:18;97470.91;;;8.70;100.00
10474;BME280;5284;50.446;7.904;2023-04-01T23:30:48;97478.75;;;8.72;100.00
10474;BME280;5284;50.446;7.904;2023-04-01T23:35:55;97486.16;;;8.68;100.00
10474;BME280;5284;50.446;7.904;2023-04-01T23:41:08;97487.00;;;8.69;100.00
10474;BME280;5284;50.446;7.904;2023-04-01T23:46:20;97490.78;;;8.66;100.00
10474;BME280;5284;50.446;7.904;2023-04-01T23:51:28;97503.09;;;8.67;100.00
10474;BME280;5284;50.446;7.904;2023-04-01T23:56:38;97507.53;;;8.67;100.00
